sensor_id;sensor_type;location;lat;lon;timestamp;pressure;altitude;pressure_sealevel;temperature;humidity
56414;BME280;42318;48.452;19.526;2023-03-16T00:07:13;98181.97;;;19.42;47.90
56414;BME280;42318;48.452;19.526;2023-03-16T00:14:46;98186.00;;;19.34;47.74
56414;BME280;42318;48.452;19.526;2023-03-16T00:22:17;98190.22;;;19.20;48.25
56414;BME280;42318;48.452;19.526;2023-03-16T00:29:50;98203.38;;;19.06;48.57
56414;BME280;42318;48.452;19.526;2023-03-16T00:37:25;98204.91;;;18.97;48.71
56414;BME280;42318;48.452;19.526;2023-03-16T00:44:57;98201.59;;;18.90;48.83
56414;BME280;42318;48.452;19.526;2023-03-16T00:52:28;98198.25;;;18.83;48.80
56414;BME280;42318;48.452;19.526;2023-03-16T00:59:59;98202.81;;;18.77;48.65
56414;BME280;42318;48.452;19.526;2023-03-16T01:07:39;98207.72;;;18.80;49.11
56414;BME280;42318;48.452;19.526;2023-03-16T01:15:10;98208.75;;;18.74;48.78
56414;BME280;42318;48.452;19.526;2023-03-16T01:22:41;98205.72;;;18.71;48.55
56414;BME280;42318;48.452;19.526;2023-03-16T01:30:12;98216.00;;;18.69;48.91
56414;BME280;42318;48.452;19.526;2023-03-16T01:37:43;98214.69;;;18.71;48.84
56414;BME280;42318;48.452;19.526;2023-03-16T01:45:52;98226.97;;;18.79;48.59
56414;BME280;42318;48.452;19.526;2023-03-16T01:53:39;98225.56;;;18.98;47.93
56414;BME280;42318;48.452;19.526;2023-03-16T02:01:12;98219.75;;;19.11;47.53
56414;BME280;42318;48.452;19.526;2023-03-16T02:08:44;98221.91;;;19.09;47.67
56414;BME280;42318;48.452;19.526;2023-03-16T02:16:18;98237.97;;;19.16;47.63
56414;BME280;42318;48.452;19.526;2023-03-16T02:23:51;98240.75;;;19.21;47.33
56414;BME280;42318;48.452;19.526;2023-03-16T02:31:22;98253.19;;;19.17;47.42
56414;BME280;42318;48.452;19.526;2023-03-16T02:38:53;98261.88;;;19.14;47.23
56414;BME280;42318;48.452;19.526;2023-03-16T02:46:25;98272.47;;;19.16;47.37
56414;BME280;42318;48.452;19.526;2023-03-16T02:53:57;98287.44;;;19.18;47.29
56414;BME280;42318;48.452;19.526;2023-03-16T03:01:28;98297.78;;;19.21;47.09
56414;BME280;42318;48.452;19.526;2023-03-16T03:08:59;98308.09;;;19.19;47.21
56414;BME280;42318;48.452;19.526;2023-03-16T03:16:31;98318.00;;;19.30;46.93
56414;BME280;42318;48.452;19.526;2023-03-16T03:24:02;98333.97;;;19.27;46.96
56414;BME280;42318;48.452;19.526;2023-03-16T03:31:33;98340.53;;;19.31;46.85
56414;BME280;42318;48.452;19.526;2023-03-16T03:39:04;98344.22;;;19.20;47.11
56414;BME280;42318;48.452;19.526;2023-03-16T03:46:35;98360.88;;;19.28;46.94
56414;BME280;42318;48.452;19.526;2023-03-16T03:54:07;98364.16;;;19.30;46.77
56414;BME280;42318;48.452;19.526;2023-03-16T04:01:37;98360.13;;;19.33;47.10
56414;BME280;42318;48.452;19.526;2023-03-16T04:09:08;98371.81;;;19.33;46.88
56414;BME280;42318;48.452;19.526;2023-03-16T04:16:39;98366.13;;;19.35;46.67
56414;BME280;42318;48.452;19.526;2023-03-16T04:24:10;98377.25;;;19.33;46.65
56414;BME280;42318;48.452;19.526;2023-03-16T04:31:44;98380.78;;;19.34;46.32
56414;BME280;42318;48.452;19.526;2023-03-16T04:39:15;98390.19;;;19.26;46.57
56414;BME280;42318;48.452;19.526;2023-03-16T04:46:46;98405.44;;;19.27;46.68
56414;BME280;42318;48.452;19.526;2023-03-16T04:54:17;98411.69;;;19.28;46.77
56414;BME280;42318;48.452;19.526;2023-03-16T05:01:48;98424.50;;;19.32;46.72
56414;BME280;42318;48.452;19.526;2023-03-16T05:09:19;98429.13;;;19.32;46.66
56414;BME280;42318;48.452;19.526;2023-03-16T05:16:50;98441.63;;;19.33;46.53
56414;BME280;42318;48.452;19.526;2023-03-16T05:24:21;98444.03;;;19.29;46.48
56414;BME280;42318;48.452;19.526;2023-03-16T05:31:53;98450.53;;;19.28;46.60
56414;BME280;42318;48.452;19.526;2023-03-16T05:39:24;98460.31;;;19.29;46.66
56414;BME280;42318;48.452;19.526;2023-03-16T05:46:55;98457.03;;;19.27;46.63
56414;BME280;42318;48.452;19.526;2023-03-16T05:54:26;98465.44;;;19.26;46.64
56414;BME280;42318;48.452;19.526;2023-03-16T06:01:57;98472.50;;;19.27;46.71
56414;BME280;42318;48.452;19.526;2023-03-16T06:09:28;98484.19;;;19.27;46.63
56414;BME280;42318;48.452;19.526;2023-03-16T06:16:58;98489.38;;;19.29;46.49
56414;BME280;42318;48.452;19.526;2023-03-16T06:24:30;98500.56;;;19.32;46.45
56414;BME280;42318;48.452;19.526;2023-03-16T06:32:00;98509.88;;;19.36;46.38
56414;BME280;42318;48.452;19.526;2023-03-16T06:39:31;98512.25;;;19.33;46.72
56414;BME280;42318;48.452;19.526;2023-03-16T06:47:02;98522.56;;;19.31;46.55
56414;BME280;42318;48.452;19.526;2023-03-16T06:54:33;98525.84;;;19.33;46.58
56414;BME280;42318;48.452;19.526;2023-03-16T07:02:10;98526.09;;;19.31;47.11
56414;BME280;42318;48.452;19.526;2023-03-16T07:09:42;98536.06;;;19.26;46.79
56414;BME280;42318;48.452;19.526;2023-03-16T07:17:13;98549.66;;;19.26;46.74
56414;BME280;42318;48.452;19.526;2023-03-16T07:24:43;98549.66;;;19.26;46.94
56414;BME280;42318;48.452;19.526;2023-03-16T07:32:15;98555.47;;;19.34;46.99
56414;BME280;42318;48.452;19.526;2023-03-16T07:39:46;98552.88;;;19.23;47.30
56414;BME280;42318;48.452;19.526;2023-03-16T07:47:17;98567.53;;;19.22;47.51
56414;BME280;42318;48.452;19.526;2023-03-16T07:54:48;98570.50;;;19.20;47.35
56414;BME280;42318;48.452;19.526;2023-03-16T08:02:19;98578.31;;;19.17;47.47
56414;BME280;42318;48.452;19.526;2023-03-16T08:09:51;98584.00;;;19.15;47.99
56414;BME280;42318;48.452;19.526;2023-03-16T08:17:22;98591.88;;;19.17;48.30
56414;BME280;42318;48.452;19.526;2023-03-16T08:24:53;98598.97;;;19.18;48.31
56414;BME280;42318;48.452;19.526;2023-03-16T08:32:24;98609.00;;;19.17;48.46
56414;BME280;42318;48.452;19.526;2023-03-16T08:39:55;98615.75;;;19.14;48.57
56414;BME280;42318;48.452;19.526;2023-03-16T08:47:25;98614.03;;;19.25;48.26
56414;BME280;42318;48.452;19.526;2023-03-16T08:54:57;98609.16;;;19.27;48.75
56414;BME280;42318;48.452;19.526;2023-03-16T09:02:28;98619.03;;;19.33;48.52
56414;BME280;42318;48.452;19.526;2023-03-16T09:09:58;98621.25;;;19.36;48.09
56414;BME280;42318;48.452;19.526;2023-03-16T09:17:29;98629.34;;;19.31;48.43
56414;BME280;42318;48.452;19.526;2023-03-16T09:25:01;98629.25;;;19.26;48.73
56414;BME280;42318;48.452;19.526;2023-03-16T09:32:32;98634.84;;;19.20;49.26
56414;BME280;42318;48.452;19.526;2023-03-16T09:40:03;98627.78;;;19.19;50.68
56414;BME280;42318;48.452;19.526;2023-03-16T09:47:34;98621.84;;;19.22;50.94
56414;BME280;42318;48.452;19.526;2023-03-16T10:19:08;98645.06;;;19.29;51.49
56414;BME280;42318;48.452;19.526;2023-03-16T10:26:49;98644.22;;;19.29;51.25
56414;BME280;42318;48.452;19.526;2023-03-16T10:34:24;98656.25;;;19.33;51.29
56414;BME280;42318;48.452;19.526;2023-03-16T10:41:56;98649.81;;;19.39;50.81
56414;BME280;42318;48.452;19.526;2023-03-16T10:49:38;98649.50;;;19.35;50.57
56414;BME280;42318;48.452;19.526;2023-03-16T10:57:32;98634.03;;;19.36;50.66
56414;BME280;42318;48.452;19.526;2023-03-16T11:12:46;98634.19;;;19.29;50.36
56414;BME280;42318;48.452;19.526;2023-03-16T11:20:22;98621.59;;;19.23;50.41
56414;BME280;42318;48.452;19.526;2023-03-16T11:35:47;98612.63;;;19.23;50.29
56414;BME280;42318;48.452;19.526;2023-03-16T11:58:56;98620.19;;;19.37;49.64
56414;BME280;42318;48.452;19.526;2023-03-16T12:14:28;98620.94;;;19.66;48.77
56414;BME280;42318;48.452;19.526;2023-03-16T12:22:22;98635.03;;;19.63;48.93
56414;BME280;42318;48.452;19.526;2023-03-16T12:45:57;98615.44;;;19.61;48.54
56414;BME280;42318;48.452;19.526;2023-03-16T13:01:25;98637.59;;;19.53;49.10
56414;BME280;42318;48.452;19.526;2023-03-16T13:08:58;98619.25;;;19.49;49.15
56414;BME280;42318;48.452;19.526;2023-03-16T13:16:32;98631.56;;;19.34;49.74
56414;BME280;42318;48.452;19.526;2023-03-16T13:24:21;98644.56;;;19.32;49.86
56414;BME280;42318;48.452;19.526;2023-03-16T13:32:00;98638.22;;;19.27;49.86
56414;BME280;42318;48.452;19.526;2023-03-16T13:39:32;98637.97;;;19.28;49.81
56414;BME280;42318;48.452;19.526;2023-03-16T13:47:04;98634.19;;;19.29;49.78
56414;BME280;42318;48.452;19.526;2023-03-16T13:54:35;98639.63;;;19.29;49.74
56414;BME280;42318;48.452;19.526;2023-03-16T14:02:16;98644.38;;;19.39;49.72
56414;BME280;42318;48.452;19.526;2023-03-16T14:09:48;98647.78;;;19.29;49.82
56414;BME280;42318;48.452;19.526;2023-03-16T14:17:20;98652.06;;;19.25;49.80
56414;BME280;42318;48.452;19.526;2023-03-16T14:24:54;98648.53;;;19.25;49.89
56414;BME280;42318;48.452;19.526;2023-03-16T14:32:31;98659.38;;;19.25;49.68
56414;BME280;42318;48.452;19.526;2023-03-16T14:40:05;98669.66;;;19.23;49.77
56414;BME280;42318;48.452;19.526;2023-03-16T14:47:40;98671.25;;;19.19;49.68
56414;BME280;42318;48.452;19.526;2023-03-16T14:55:14;98666.06;;;19.17;49.71
56414;BME280;42318;48.452;19.526;2023-03-16T15:03:09;98682.59;;;19.16;49.68
56414;BME280;42318;48.452;19.526;2023-03-16T15:10:41;98695.59;;;19.13;49.58
56414;BME280;42318;48.452;19.526;2023-03-16T15:18:13;98708.25;;;19.08;49.79
56414;BME280;42318;48.452;19.526;2023-03-16T15:25:45;98722.66;;;19.08;49.57
56414;BME280;42318;48.452;19.526;2023-03-16T15:33:17;98727.72;;;19.05;49.80
56414;BME280;42318;48.452;19.526;2023-03-16T15:40:49;98724.94;;;19.00;49.66
56414;BME280;42318;48.452;19.526;2023-03-16T15:48:20;98733.06;;;19.00;49.81
56414;BME280;42318;48.452;19.526;2023-03-16T15:56:05;98722.13;;;18.95;49.81
56414;BME280;42318;48.452;19.526;2023-03-16T16:03:37;98738.66;;;18.93;49.59
56414;BME280;42318;48.452;19.526;2023-03-16T16:11:21;98753.06;;;18.94;49.74
56414;BME280;42318;48.452;19.526;2023-03-16T16:18:54;98766.88;;;18.92;49.55
56414;BME280;42318;48.452;19.526;2023-03-16T16:26:34;98771.72;;;18.90;49.57
56414;BME280;42318;48.452;19.526;2023-03-16T16:34:12;98786.94;;;18.91;49.41
56414;BME280;42318;48.452;19.526;2023-03-16T16:41:43;98786.94;;;18.91;49.24
56414;BME280;42318;48.452;19.526;2023-03-16T16:49:18;98802.28;;;18.97;49.15
56414;BME280;42318;48.452;19.526;2023-03-16T16:56:51;98795.69;;;19.22;48.60
56414;BME280;42318;48.452;19.526;2023-03-16T17:04:25;98802.88;;;19.28;48.23
56414;BME280;42318;48.452;19.526;2023-03-16T17:11:58;98821.50;;;19.36;47.87
56414;BME280;42318;48.452;19.526;2023-03-16T17:19:30;98829.50;;;19.42;47.78
56414;BME280;42318;48.452;19.526;2023-03-16T17:27:02;98828.44;;;19.43;47.77
56414;BME280;42318;48.452;19.526;2023-03-16T17:34:34;98843.19;;;19.48;47.62
56414;BME280;42318;48.452;19.526;2023-03-16T17:42:10;98835.75;;;19.43;47.67
56414;BME280;42318;48.452;19.526;2023-03-16T17:49:41;98858.78;;;19.52;47.45
56414;BME280;42318;48.452;19.526;2023-03-16T17:57:15;98870.50;;;19.53;47.47
56414;BME280;42318;48.452;19.526;2023-03-16T18:04:46;98873.81;;;19.55;47.29
56414;BME280;42318;48.452;19.526;2023-03-16T18:12:17;98892.34;;;19.58;47.35
56414;BME280;42318;48.452;19.526;2023-03-16T18:19:48;98893.16;;;19.58;47.42
56414;BME280;42318;48.452;19.526;2023-03-16T18:27:20;98911.47;;;19.63;47.21
56414;BME280;42318;48.452;19.526;2023-03-16T18:34:51;98906.53;;;19.60;47.19
56414;BME280;42318;48.452;19.526;2023-03-16T18:42:24;98917.72;;;19.63;46.83
56414;BME280;42318;48.452;19.526;2023-03-16T18:49:57;98922.59;;;19.61;47.32
56414;BME280;42318;48.452;19.526;2023-03-16T18:57:29;98929.91;;;19.61;47.08
56414;BME280;42318;48.452;19.526;2023-03-16T19:05:03;98934.88;;;19.64;47.12
56414;BME280;42318;48.452;19.526;2023-03-16T19:12:34;98950.09;;;19.65;46.90
56414;BME280;42318;48.452;19.526;2023-03-16T19:20:05;98950.00;;;19.60;46.88
56414;BME280;42318;48.452;19.526;2023-03-16T19:27:37;98957.91;;;19.61;46.75
56414;BME280;42318;48.452;19.526;2023-03-16T19:35:14;98973.56;;;19.54;46.92
56414;BME280;42318;48.452;19.526;2023-03-16T19:42:46;98990.00;;;19.24;47.92
56414;BME280;42318;48.452;19.526;2023-03-16T19:50:20;98993.66;;;19.06;48.09
56414;BME280;42318;48.452;19.526;2023-03-16T19:57:57;98996.97;;;18.97;48.27
56414;BME280;42318;48.452;19.526;2023-03-16T20:05:29;98995.78;;;18.93;48.21
56414;BME280;42318;48.452;19.526;2023-03-16T20:13:00;99013.38;;;18.90;48.31
56414;BME280;42318;48.452;19.526;2023-03-16T20:20:31;99012.31;;;18.79;48.25
56414;BME280;42318;48.452;19.526;2023-03-16T20:28:14;99020.81;;;18.83;48.24
56414;BME280;42318;48.452;19.526;2023-03-16T20:35:47;99026.13;;;18.78;48.24
56414;BME280;42318;48.452;19.526;2023-03-16T20:43:27;99036.63;;;18.74;48.35
56414;BME280;42318;48.452;19.526;2023-03-16T20:50:59;99038.75;;;18.72;48.43
56414;BME280;42318;48.452;19.526;2023-03-16T20:58:30;99046.53;;;18.69;48.31
56414;BME280;42318;48.452;19.526;2023-03-16T21:06:08;99050.31;;;18.68;48.17
56414;BME280;42318;48.452;19.526;2023-03-16T21:13:44;99052.63;;;18.64;48.41
56414;BME280;42318;48.452;19.526;2023-03-16T21:21:16;99071.09;;;18.74;48.10
56414;BME280;42318;48.452;19.526;2023-03-16T21:28:59;99075.75;;;19.08;47.09
56414;BME280;42318;48.452;19.526;2023-03-16T21:36:31;99086.84;;;19.19;47.21
56414;BME280;42318;48.452;19.526;2023-03-16T21:44:02;99068.44;;;19.21;46.73
56414;BME280;42318;48.452;19.526;2023-03-16T21:51:33;99063.69;;;19.28;46.36
56414;BME280;42318;48.452;19.526;2023-03-16T21:59:04;99064.75;;;19.27;46.11
56414;BME280;42318;48.452;19.526;2023-03-16T22:06:35;99064.63;;;19.33;46.37
56414;BME280;42318;48.452;19.526;2023-03-16T22:14:06;99065.81;;;19.26;46.41
56414;BME280;42318;48.452;19.526;2023-03-16T22:21:41;99079.63;;;19.36;46.23
56414;BME280;42318;48.452;19.526;2023-03-16T22:29:26;99083.78;;;19.38;46.01
56414;BME280;42318;48.452;19.526;2023-03-16T22:36:58;99072.06;;;19.38;45.96
56414;BME280;42318;48.452;19.526;2023-03-16T22:44:30;99067.47;;;19.38;45.99
56414;BME280;42318;48.452;19.526;2023-03-16T22:52:01;99071.00;;;19.39;45.95
56414;BME280;42318;48.452;19.526;2023-03-16T22:59:33;99080.00;;;19.39;45.95
56414;BME280;42318;48.452;19.526;2023-03-16T23:07:11;99074.44;;;19.34;46.04
56414;BME280;42318;48.452;19.526;2023-03-16T23:14:42;99093.44;;;19.46;45.82
56414;BME280;42318;48.452;19.526;2023-03-16T23:22:14;99103.25;;;19.35;46.13
56414;BME280;42318;48.452;19.526;2023-03-16T23:29:45;99084.94;;;19.42;45.81
56414;BME280;42318;48.452;19.526;2023-03-16T23:37:16;99092.84;;;19.44;45.71
56414;BME280;42318;48.452;19.526;2023-03-16T23:44:47;99085.78;;;19.43;45.73
56414;BME280;42318;48.452;19.526;2023-03-16T23:52:18;99086.94;;;19.47;45.51
56414;BME280;42318;48.452;19.526;2023-03-16T23:59:48;99089.06;;;19.45;45.83
